createdAt,value
2022-08-17T00:04:22.279Z,0.00
2022-08-17T00:09:53.941Z,0.00
2022-08-17T00:14:46.335Z,0.00
2022-08-17T00:19:46.249Z,0.00
2022-08-17T00:24:46.211Z,0.00
2022-08-17T00:29:46.204Z,0.00
2022-08-17T00:34:46.110Z,0.00
2022-08-17T00:39:46.078Z,0.00
2022-08-17T00:44:46.654Z,0.00
2022-08-17T00:49:45.914Z,0.00
2022-08-17T00:54:45.817Z,0.00
2022-08-17T00:59:45.889Z,0.00
2022-08-17T01:04:45.678Z,0.00
2022-08-17T01:09:45.648Z,0.00
2022-08-17T01:14:45.533Z,0.00
2022-08-17T01:19:45.483Z,0.00
2022-08-17T01:24:45.405Z,0.00
2022-08-17T01:29:45.382Z,0.00
2022-08-17T01:34:50.439Z,0.00
2022-08-17T01:39:46.283Z,0.00
2022-08-17T01:44:45.169Z,0.00
2022-08-17T01:49:45.070Z,0.00
2022-08-17T01:54:45.020Z,0.00
2022-08-17T01:59:45.002Z,0.00
2022-08-17T02:04:44.882Z,0.00
2022-08-17T02:09:45.006Z,0.00
2022-08-17T02:14:45.758Z,0.00
2022-08-17T02:19:44.698Z,0.00
2022-08-17T02:25:00.491Z,0.00
2022-08-17T02:29:45.640Z,0.00
2022-08-17T02:34:44.570Z,0.00
2022-08-17T02:39:44.563Z,0.00
2022-08-17T02:44:44.471Z,0.00
2022-08-17T02:49:54.326Z,0.00
2022-08-17T02:54:45.221Z,0.00
2022-08-17T02:59:48.823Z,0.00
2022-08-17T03:04:44.101Z,0.00
2022-08-17T03:09:44.018Z,0.00
2022-08-17T03:14:43.933Z,0.00
2022-08-17T03:19:43.986Z,0.00
2022-08-17T03:24:43.817Z,0.00
2022-08-17T03:29:43.746Z,0.00
2022-08-17T03:34:43.681Z,0.00
2022-08-17T03:39:43.747Z,0.00
2022-08-17T03:44:43.573Z,0.00
2022-08-17T03:49:43.495Z,0.00
2022-08-17T03:54:43.427Z,4.00
2022-08-17T03:59:43.372Z,4.00
2022-08-17T04:04:43.318Z,4.00
2022-08-17T04:09:43.230Z,8.00
2022-08-17T04:14:53.588Z,8.00
2022-08-17T04:19:50.821Z,20.00
2022-08-17T04:24:43.741Z,32.00
2022-08-17T04:29:54.878Z,56.00
2022-08-17T04:34:44.593Z,88.00
2022-08-17T04:39:43.796Z,116.00
2022-08-17T04:44:43.487Z,148.00
2022-08-17T04:49:43.398Z,184.00
2022-08-17T04:54:44.854Z,212.00
2022-08-17T04:59:43.265Z,272.00
2022-08-17T05:04:43.274Z,364.00
2022-08-17T05:09:43.127Z,456.00
2022-08-17T05:14:43.075Z,512.00
2022-08-17T05:19:43.030Z,488.00
2022-08-17T05:24:50.477Z,444.00
2022-08-17T05:29:43.880Z,408.00
2022-08-17T05:34:42.851Z,392.00
2022-08-17T05:39:42.849Z,412.00
2022-08-17T05:44:42.718Z,524.00
2022-08-17T05:49:42.624Z,676.00
2022-08-17T05:54:42.556Z,792.00
2022-08-17T05:59:42.458Z,764.00
2022-08-17T06:04:42.496Z,684.00
2022-08-17T06:09:42.323Z,588.00
2022-08-17T06:14:42.284Z,552.00
2022-08-17T06:19:42.238Z,672.00
2022-08-17T06:24:42.133Z,868.00
2022-08-17T06:29:42.077Z,952.00
2022-08-17T06:34:42.030Z,892.00
2022-08-17T06:39:41.966Z,868.00
2022-08-17T06:44:50.684Z,812.00
2022-08-17T06:49:42.918Z,792.00
2022-08-17T06:54:41.732Z,780.00
2022-08-17T06:59:54.421Z,760.00
2022-08-17T07:04:42.640Z,752.00
2022-08-17T07:09:41.535Z,724.00
2022-08-17T07:14:41.503Z,796.00
2022-08-17T07:19:41.425Z,728.00
2022-08-17T07:24:41.398Z,720.00
2022-08-17T07:29:41.283Z,884.00
2022-08-17T07:34:41.217Z,1176.00
2022-08-17T07:39:59.601Z,1396.00
2022-08-17T07:44:42.069Z,1396.00
2022-08-17T07:49:41.013Z,1384.00
2022-08-17T07:54:40.937Z,1300.00
2022-08-17T07:59:40.885Z,1260.00
2022-08-17T08:04:59.884Z,1192.00
2022-08-17T08:09:41.744Z,880.00
2022-08-17T08:14:40.686Z,692.00
2022-08-17T08:19:40.608Z,784.00
2022-08-17T08:24:40.561Z,1084.00
2022-08-17T08:29:40.485Z,1004.00
2022-08-17T08:34:54.748Z,964.00
2022-08-17T08:39:41.397Z,1092.00
2022-08-17T08:45:00.435Z,1244.00
2022-08-17T08:50:02.564Z,1376.00
2022-08-17T08:54:41.149Z,1424.00
2022-08-17T08:59:41.962Z,1084.00
2022-08-17T09:05:02.596Z,1068.00
2022-08-17T09:09:40.962Z,1288.00
2022-08-17T09:14:44.977Z,2012.00
2022-08-17T09:19:40.838Z,3196.00
2022-08-17T09:24:39.783Z,3304.00
2022-08-17T09:29:39.673Z,2292.00
2022-08-17T09:34:39.663Z,2748.00
2022-08-17T09:39:39.636Z,6012.00
2022-08-17T09:44:39.517Z,5000.00
2022-08-17T09:49:39.438Z,2732.00
2022-08-17T09:54:40.391Z,2460.00
2022-08-17T09:59:39.290Z,2324.00
2022-08-17T10:04:39.325Z,2508.00
2022-08-17T10:09:39.167Z,4412.00
2022-08-17T10:14:43.984Z,10528.00
2022-08-17T10:19:40.056Z,12064.00
2022-08-17T10:24:39.049Z,11648.00
2022-08-17T10:29:47.292Z,8512.00
2022-08-17T10:34:41.672Z,8984.00
2022-08-17T10:39:51.982Z,4392.00
2022-08-17T10:44:41.383Z,5664.00
2022-08-17T10:49:38.653Z,7872.00
2022-08-17T10:54:38.664Z,5012.00
2022-08-17T10:59:38.580Z,4912.00
2022-08-17T11:04:38.493Z,3788.00
2022-08-17T11:09:38.396Z,3924.00
2022-08-17T11:14:38.330Z,4604.00
2022-08-17T11:19:38.455Z,21664.00
2022-08-17T11:24:38.223Z,5620.00
2022-08-17T11:29:38.136Z,15584.00
2022-08-17T11:34:38.066Z,20864.00
2022-08-17T11:39:38.072Z,21728.00
2022-08-17T11:44:37.953Z,20800.00
2022-08-17T11:49:37.917Z,4868.00
2022-08-17T11:54:37.875Z,15200.00
2022-08-17T11:59:37.764Z,9008.00
2022-08-17T12:04:37.878Z,8976.00
2022-08-17T12:09:37.687Z,9524.00
2022-08-17T12:15:08.011Z,8096.00
2022-08-17T12:19:38.524Z,4404.00
2022-08-17T12:24:37.494Z,7756.00
2022-08-17T12:29:38.686Z,7500.00
2022-08-17T12:34:37.409Z,4788.00
2022-08-17T12:39:37.270Z,7072.00
2022-08-17T12:44:37.170Z,6928.00
2022-08-17T12:49:38.130Z,6960.00
2022-08-17T12:54:37.081Z,7528.00
2022-08-17T12:59:37.044Z,6404.00
2022-08-17T13:04:36.945Z,4028.00
2022-08-17T13:09:40.431Z,3196.00
2022-08-17T13:14:36.831Z,3476.00
2022-08-17T13:19:40.727Z,2620.00
2022-08-17T13:24:38.380Z,3920.00
2022-08-17T13:29:36.633Z,3500.00
2022-08-17T13:34:38.701Z,3140.00
2022-08-17T13:39:37.491Z,3252.00
2022-08-17T13:44:36.426Z,4608.00
2022-08-17T13:49:48.559Z,5624.00
2022-08-17T13:54:37.295Z,5284.00
2022-08-17T13:59:54.565Z,4604.00
2022-08-17T14:04:37.161Z,2724.00
2022-08-17T14:09:37.365Z,2304.00
2022-08-17T14:14:36.024Z,3492.00
2022-08-17T14:19:35.954Z,3380.00
2022-08-17T14:24:35.910Z,3148.00
2022-08-17T14:29:35.980Z,2860.00
2022-08-17T14:34:35.772Z,2804.00
2022-08-17T14:39:35.719Z,1932.00
2022-08-17T14:44:35.719Z,2056.00
2022-08-17T14:49:35.715Z,2464.00
2022-08-17T14:54:35.501Z,2404.00
2022-08-17T14:59:35.449Z,2292.00
2022-08-17T15:04:35.385Z,2120.00
2022-08-17T15:09:35.801Z,1892.00
2022-08-17T15:14:35.273Z,1776.00
2022-08-17T15:19:35.188Z,1692.00
2022-08-17T15:24:35.141Z,1596.00
2022-08-17T15:29:35.105Z,1544.00
2022-08-17T15:34:34.987Z,1500.00
2022-08-17T15:39:35.006Z,1468.00
2022-08-17T15:44:36.838Z,1404.00
2022-08-17T15:49:34.810Z,1368.00
2022-08-17T15:54:34.794Z,1324.00
2022-08-17T15:59:34.694Z,1248.00
2022-08-17T16:04:34.918Z,1204.00
2022-08-17T16:09:34.575Z,1152.00
2022-08-17T16:14:35.249Z,1112.00
2022-08-17T16:19:34.476Z,1092.00
2022-08-17T16:24:34.359Z,1060.00
2022-08-17T16:29:34.286Z,1028.00
2022-08-17T16:34:34.279Z,1012.00
2022-08-17T16:39:34.245Z,980.00
2022-08-17T16:44:34.144Z,928.00
2022-08-17T16:49:37.319Z,820.00
2022-08-17T16:54:33.967Z,652.00
2022-08-17T16:59:42.404Z,604.00
2022-08-17T17:04:35.448Z,664.00
2022-08-17T17:09:57.575Z,652.00
2022-08-17T17:14:49.975Z,684.00
2022-08-17T17:19:49.922Z,652.00
2022-08-17T17:24:50.356Z,624.00
2022-08-17T17:29:49.806Z,600.00
2022-08-17T17:34:51.160Z,568.00
2022-08-17T17:39:49.778Z,540.00
2022-08-17T17:44:49.665Z,504.00
2022-08-17T17:49:49.551Z,468.00
2022-08-17T17:54:49.504Z,428.00
2022-08-17T17:59:49.385Z,384.00
2022-08-17T18:04:49.325Z,336.00
2022-08-17T18:09:51.947Z,300.00
2022-08-17T18:14:49.250Z,268.00
2022-08-17T18:19:49.140Z,228.00
2022-08-17T18:24:49.141Z,184.00
2022-08-17T18:29:49.027Z,136.00
2022-08-17T18:34:49.235Z,104.00
2022-08-17T18:39:48.949Z,72.00
2022-08-17T18:44:52.935Z,44.00
2022-08-17T18:49:49.755Z,28.00
2022-08-17T18:54:48.706Z,12.00
2022-08-17T18:59:48.658Z,8.00
2022-08-17T19:04:48.606Z,4.00
2022-08-17T19:09:48.462Z,4.00
2022-08-17T19:14:48.454Z,0.00
2022-08-17T19:19:48.361Z,0.00
2022-08-17T19:24:50.087Z,0.00
2022-08-17T19:29:48.371Z,0.00
2022-08-17T19:34:48.160Z,0.00
2022-08-17T19:39:48.226Z,0.00
2022-08-17T19:44:48.039Z,0.00
2022-08-17T19:49:47.970Z,0.00
2022-08-17T19:54:47.899Z,0.00
2022-08-17T19:59:47.867Z,0.00
2022-08-17T20:04:47.776Z,0.00
2022-08-17T20:09:47.717Z,0.00
2022-08-17T20:14:53.513Z,0.00
2022-08-17T20:19:48.572Z,0.00
2022-08-17T20:24:47.553Z,0.00
2022-08-17T20:29:47.437Z,0.00
2022-08-17T20:34:47.370Z,0.00
2022-08-17T20:39:47.343Z,0.00
2022-08-17T20:44:47.230Z,0.00
2022-08-17T20:49:47.266Z,0.00
2022-08-17T20:54:47.104Z,0.00
2022-08-17T20:59:47.227Z,0.00
2022-08-17T21:04:47.045Z,0.00
2022-08-17T21:09:46.898Z,0.00
2022-08-17T21:14:46.922Z,0.00
2022-08-17T21:20:08.175Z,0.00
2022-08-17T21:24:47.746Z,0.00
2022-08-17T21:29:46.651Z,0.00
2022-08-17T21:34:46.620Z,0.00
2022-08-17T21:39:46.573Z,0.00
2022-08-17T21:44:46.434Z,0.00
2022-08-17T21:49:46.366Z,0.00
2022-08-17T21:54:46.325Z,0.00
2022-08-17T21:59:46.320Z,0.00
2022-08-17T22:04:46.191Z,0.00
2022-08-17T22:09:46.111Z,0.00
2022-08-17T22:14:52.935Z,0.00
2022-08-17T22:19:46.985Z,0.00
2022-08-17T22:24:45.928Z,0.00
2022-08-17T22:29:45.915Z,0.00
2022-08-17T22:34:45.814Z,0.00
2022-08-17T22:39:45.798Z,0.00
2022-08-17T22:44:45.705Z,0.00
2022-08-17T22:49:54.101Z,0.00
2022-08-17T22:54:46.550Z,0.00
2022-08-17T22:59:45.469Z,0.00
2022-08-17T23:04:45.497Z,0.00
2022-08-17T23:09:45.334Z,0.00
2022-08-17T23:14:45.336Z,0.00
2022-08-17T23:19:45.218Z,0.00
2022-08-17T23:24:45.256Z,0.00
2022-08-17T23:29:45.046Z,0.00
2022-08-17T23:34:45.007Z,0.00
2022-08-17T23:39:45.001Z,0.00
2022-08-17T23:44:44.947Z,0.00
2022-08-17T23:49:45.531Z,0.00
2022-08-17T23:54:44.754Z,0.00
2022-08-17T23:59:44.681Z,0.00
